sensor_id;sensor_type;location;lat;lon;timestamp;temperature;humidity
6822;DHT22;3449;48.728;8.968;2023-01-19T00:00:24;-4.20;99.90
6822;DHT22;3449;48.728;8.968;2023-01-19T00:02:52;-4.20;99.90
6822;DHT22;3449;48.728;8.968;2023-01-19T00:05:19;-4.20;99.90
6822;DHT22;3449;48.728;8.968;2023-01-19T00:07:47;-4.20;99.90
6822;DHT22;3449;48.728;8.968;2023-01-19T00:10:14;-4.20;99.90
6822;DHT22;3449;48.728;8.968;2023-01-19T00:12:41;-4.10;99.90
6822;DHT22;3449;48.728;8.968;2023-01-19T00:15:09;-4.10;99.90
6822;DHT22;3449;48.728;8.968;2023-01-19T00:17:36;-4.10;99.90
6822;DHT22;3449;48.728;8.968;2023-01-19T00:20:07;-4.10;99.90
6822;DHT22;3449;48.728;8.968;2023-01-19T00:22:34;-4.10;99.90
6822;DHT22;3449;48.728;8.968;2023-01-19T00:25:02;-4.00;99.90
6822;DHT22;3449;48.728;8.968;2023-01-19T00:27:29;-4.00;99.90
6822;DHT22;3449;48.728;8.968;2023-01-19T00:29:59;-4.00;99.90
6822;DHT22;3449;48.728;8.968;2023-01-19T00:32:26;-4.10;99.90
6822;DHT22;3449;48.728;8.968;2023-01-19T00:34:53;-4.10;99.90
6822;DHT22;3449;48.728;8.968;2023-01-19T00:37:20;-4.10;99.90
6822;DHT22;3449;48.728;8.968;2023-01-19T00:39:47;-4.10;99.90
6822;DHT22;3449;48.728;8.968;2023-01-19T00:42:15;-4.10;99.90
6822;DHT22;3449;48.728;8.968;2023-01-19T00:44:59;-4.20;99.90
6822;DHT22;3449;48.728;8.968;2023-01-19T00:47:26;-4.20;99.90
6822;DHT22;3449;48.728;8.968;2023-01-19T00:49:53;-4.20;99.90
6822;DHT22;3449;48.728;8.968;2023-01-19T00:52:20;-4.30;99.90
6822;DHT22;3449;48.728;8.968;2023-01-19T00:54:46;-4.30;99.90
6822;DHT22;3449;48.728;8.968;2023-01-19T00:57:15;-4.30;99.90
6822;DHT22;3449;48.728;8.968;2023-01-19T00:59:43;-4.30;99.90
6822;DHT22;3449;48.728;8.968;2023-01-19T01:02:10;-4.40;99.90
6822;DHT22;3449;48.728;8.968;2023-01-19T01:04:37;-4.40;99.90
6822;DHT22;3449;48.728;8.968;2023-01-19T01:07:04;-4.40;99.90
6822;DHT22;3449;48.728;8.968;2023-01-19T01:09:31;-4.50;99.90
6822;DHT22;3449;48.728;8.968;2023-01-19T01:11:58;-4.50;99.90
6822;DHT22;3449;48.728;8.968;2023-01-19T01:14:26;-4.60;99.90
6822;DHT22;3449;48.728;8.968;2023-01-19T01:16:53;-4.60;99.90
6822;DHT22;3449;48.728;8.968;2023-01-19T01:19:20;-4.50;99.90
6822;DHT22;3449;48.728;8.968;2023-01-19T01:21:47;-4.60;99.90
6822;DHT22;3449;48.728;8.968;2023-01-19T01:24:15;-4.60;99.90
6822;DHT22;3449;48.728;8.968;2023-01-19T01:26:43;-4.60;99.90
6822;DHT22;3449;48.728;8.968;2023-01-19T01:29:10;-4.60;99.90
6822;DHT22;3449;48.728;8.968;2023-01-19T01:31:39;-4.60;99.90
6822;DHT22;3449;48.728;8.968;2023-01-19T01:34:06;-4.60;99.90
6822;DHT22;3449;48.728;8.968;2023-01-19T01:36:33;-4.70;99.90
6822;DHT22;3449;48.728;8.968;2023-01-19T01:39:00;-4.70;99.90
6822;DHT22;3449;48.728;8.968;2023-01-19T01:41:27;-4.70;99.90
6822;DHT22;3449;48.728;8.968;2023-01-19T01:43:56;-4.70;99.90
6822;DHT22;3449;48.728;8.968;2023-01-19T01:46:27;-4.70;99.90
6822;DHT22;3449;48.728;8.968;2023-01-19T01:49:00;-4.70;99.90
6822;DHT22;3449;48.728;8.968;2023-01-19T01:51:32;-4.70;99.90
6822;DHT22;3449;48.728;8.968;2023-01-19T01:54:14;-4.60;99.90
6822;DHT22;3449;48.728;8.968;2023-01-19T01:56:44;-4.60;99.90
6822;DHT22;3449;48.728;8.968;2023-01-19T01:59:14;-4.50;99.90
6822;DHT22;3449;48.728;8.968;2023-01-19T02:01:50;-4.60;99.90
6822;DHT22;3449;48.728;8.968;2023-01-19T02:04:37;-4.50;99.90
6822;DHT22;3449;48.728;8.968;2023-01-19T02:07:05;-4.60;99.90
6822;DHT22;3449;48.728;8.968;2023-01-19T02:09:50;-4.60;99.90
6822;DHT22;3449;48.728;8.968;2023-01-19T02:12:34;-4.60;99.90
6822;DHT22;3449;48.728;8.968;2023-01-19T02:15:19;-4.60;99.90
6822;DHT22;3449;48.728;8.968;2023-01-19T02:17:46;-4.60;99.90
6822;DHT22;3449;48.728;8.968;2023-01-19T02:20:15;-4.60;99.90
6822;DHT22;3449;48.728;8.968;2023-01-19T02:22:46;-4.70;99.90
6822;DHT22;3449;48.728;8.968;2023-01-19T02:25:17;-4.70;99.90
6822;DHT22;3449;48.728;8.968;2023-01-19T02:27:44;-4.70;99.90
6822;DHT22;3449;48.728;8.968;2023-01-19T02:30:12;-4.70;99.90
6822;DHT22;3449;48.728;8.968;2023-01-19T02:32:41;-4.70;99.90
6822;DHT22;3449;48.728;8.968;2023-01-19T02:35:09;-4.80;99.90
6822;DHT22;3449;48.728;8.968;2023-01-19T02:37:36;-4.80;99.90
6822;DHT22;3449;48.728;8.968;2023-01-19T02:40:08;-4.80;99.90
6822;DHT22;3449;48.728;8.968;2023-01-19T02:42:38;-4.80;99.90
6822;DHT22;3449;48.728;8.968;2023-01-19T02:45:09;-4.80;99.90
6822;DHT22;3449;48.728;8.968;2023-01-19T02:47:38;-4.80;99.90
6822;DHT22;3449;48.728;8.968;2023-01-19T02:50:41;-4.90;99.90
6822;DHT22;3449;48.728;8.968;2023-01-19T02:53:37;-4.90;99.90
6822;DHT22;3449;48.728;8.968;2023-01-19T02:56:21;-4.90;99.90
6822;DHT22;3449;48.728;8.968;2023-01-19T02:58:58;-4.90;99.90
6822;DHT22;3449;48.728;8.968;2023-01-19T03:01:30;-4.90;99.90
6822;DHT22;3449;48.728;8.968;2023-01-19T03:04:03;-4.90;99.90
6822;DHT22;3449;48.728;8.968;2023-01-19T03:06:38;-4.90;99.90
6822;DHT22;3449;48.728;8.968;2023-01-19T03:09:12;-4.90;99.90
6822;DHT22;3449;48.728;8.968;2023-01-19T03:11:48;-4.80;99.90
6822;DHT22;3449;48.728;8.968;2023-01-19T03:14:22;-4.90;99.90
6822;DHT22;3449;48.728;8.968;2023-01-19T03:16:53;-4.90;99.90
6822;DHT22;3449;48.728;8.968;2023-01-19T03:19:25;-4.90;99.90
6822;DHT22;3449;48.728;8.968;2023-01-19T03:21:55;-4.90;99.90
6822;DHT22;3449;48.728;8.968;2023-01-19T03:24:24;-4.90;99.90
6822;DHT22;3449;48.728;8.968;2023-01-19T03:26:57;-5.00;99.90
6822;DHT22;3449;48.728;8.968;2023-01-19T03:29:30;-5.00;99.90
6822;DHT22;3449;48.728;8.968;2023-01-19T03:32:02;-5.00;99.90
6822;DHT22;3449;48.728;8.968;2023-01-19T03:34:31;-5.00;99.90
6822;DHT22;3449;48.728;8.968;2023-01-19T03:37:02;-5.10;99.90
6822;DHT22;3449;48.728;8.968;2023-01-19T03:39:29;-5.10;99.90
6822;DHT22;3449;48.728;8.968;2023-01-19T03:41:58;-5.10;99.90
6822;DHT22;3449;48.728;8.968;2023-01-19T03:44:31;-5.10;99.90
6822;DHT22;3449;48.728;8.968;2023-01-19T03:46:58;-5.00;99.90
6822;DHT22;3449;48.728;8.968;2023-01-19T03:49:27;-4.90;99.90
6822;DHT22;3449;48.728;8.968;2023-01-19T03:51:56;-5.00;99.90
6822;DHT22;3449;48.728;8.968;2023-01-19T03:54:24;-5.00;99.90
6822;DHT22;3449;48.728;8.968;2023-01-19T03:56:51;-5.00;99.90
6822;DHT22;3449;48.728;8.968;2023-01-19T03:59:18;-5.10;99.90
6822;DHT22;3449;48.728;8.968;2023-01-19T04:01:48;-5.10;99.90
6822;DHT22;3449;48.728;8.968;2023-01-19T04:04:15;-5.10;99.90
6822;DHT22;3449;48.728;8.968;2023-01-19T04:06:42;-5.10;99.90
6822;DHT22;3449;48.728;8.968;2023-01-19T04:09:09;-5.10;99.90
6822;DHT22;3449;48.728;8.968;2023-01-19T04:11:36;-5.10;99.90
6822;DHT22;3449;48.728;8.968;2023-01-19T04:14:03;-5.00;99.90
6822;DHT22;3449;48.728;8.968;2023-01-19T04:16:30;-5.00;99.90
6822;DHT22;3449;48.728;8.968;2023-01-19T04:18:58;-4.90;99.90
6822;DHT22;3449;48.728;8.968;2023-01-19T04:21:25;-4.80;99.90
6822;DHT22;3449;48.728;8.968;2023-01-19T04:23:52;-4.70;99.90
6822;DHT22;3449;48.728;8.968;2023-01-19T04:26:19;-4.70;99.90
6822;DHT22;3449;48.728;8.968;2023-01-19T04:28:46;-4.60;99.90
6822;DHT22;3449;48.728;8.968;2023-01-19T04:31:12;-4.50;99.90
6822;DHT22;3449;48.728;8.968;2023-01-19T04:33:39;-4.50;99.90
6822;DHT22;3449;48.728;8.968;2023-01-19T04:36:08;-4.40;99.90
6822;DHT22;3449;48.728;8.968;2023-01-19T04:38:35;-4.40;99.90
6822;DHT22;3449;48.728;8.968;2023-01-19T04:41:02;-4.40;99.90
6822;DHT22;3449;48.728;8.968;2023-01-19T04:43:29;-4.40;99.90
6822;DHT22;3449;48.728;8.968;2023-01-19T04:45:56;-4.40;99.90
6822;DHT22;3449;48.728;8.968;2023-01-19T04:48:23;-4.50;99.90
6822;DHT22;3449;48.728;8.968;2023-01-19T04:50:50;-4.50;99.90
6822;DHT22;3449;48.728;8.968;2023-01-19T04:53:19;-4.50;99.90
6822;DHT22;3449;48.728;8.968;2023-01-19T04:55:46;-4.60;99.90
6822;DHT22;3449;48.728;8.968;2023-01-19T04:58:13;-4.70;99.90
6822;DHT22;3449;48.728;8.968;2023-01-19T05:00:40;-4.70;99.90
6822;DHT22;3449;48.728;8.968;2023-01-19T05:03:07;-4.70;99.90
6822;DHT22;3449;48.728;8.968;2023-01-19T05:05:34;-4.70;99.90
6822;DHT22;3449;48.728;8.968;2023-01-19T05:08:00;-4.70;99.90
6822;DHT22;3449;48.728;8.968;2023-01-19T05:10:29;-4.70;99.90
6822;DHT22;3449;48.728;8.968;2023-01-19T05:12:55;-4.70;99.90
6822;DHT22;3449;48.728;8.968;2023-01-19T05:15:22;-4.70;99.90
6822;DHT22;3449;48.728;8.968;2023-01-19T05:17:49;-4.80;99.90
6822;DHT22;3449;48.728;8.968;2023-01-19T05:20:17;-4.80;99.90
6822;DHT22;3449;48.728;8.968;2023-01-19T05:22:48;-4.80;99.90
6822;DHT22;3449;48.728;8.968;2023-01-19T05:25:15;-4.80;99.90
6822;DHT22;3449;48.728;8.968;2023-01-19T05:27:43;-4.80;99.90
6822;DHT22;3449;48.728;8.968;2023-01-19T05:30:11;-4.80;99.90
6822;DHT22;3449;48.728;8.968;2023-01-19T05:32:38;-4.80;99.90
6822;DHT22;3449;48.728;8.968;2023-01-19T05:35:06;-4.80;99.90
6822;DHT22;3449;48.728;8.968;2023-01-19T05:37:33;-4.80;99.90
6822;DHT22;3449;48.728;8.968;2023-01-19T05:40:00;-4.90;99.90
6822;DHT22;3449;48.728;8.968;2023-01-19T05:42:27;-4.90;99.90
6822;DHT22;3449;48.728;8.968;2023-01-19T05:44:55;-4.90;99.90
6822;DHT22;3449;48.728;8.968;2023-01-19T05:47:23;-4.90;99.90
6822;DHT22;3449;48.728;8.968;2023-01-19T05:49:50;-5.00;99.90
6822;DHT22;3449;48.728;8.968;2023-01-19T05:52:17;-5.00;99.90
6822;DHT22;3449;48.728;8.968;2023-01-19T05:54:44;-5.10;99.90
6822;DHT22;3449;48.728;8.968;2023-01-19T05:57:13;-5.10;99.90
6822;DHT22;3449;48.728;8.968;2023-01-19T05:59:40;-5.10;99.90
6822;DHT22;3449;48.728;8.968;2023-01-19T06:02:08;-5.10;99.90
6822;DHT22;3449;48.728;8.968;2023-01-19T06:04:35;-5.10;99.90
6822;DHT22;3449;48.728;8.968;2023-01-19T06:07:01;-5.10;99.90
6822;DHT22;3449;48.728;8.968;2023-01-19T06:09:28;-5.20;99.90
6822;DHT22;3449;48.728;8.968;2023-01-19T06:11:55;-5.10;99.90
6822;DHT22;3449;48.728;8.968;2023-01-19T06:14:24;-5.10;99.90
6822;DHT22;3449;48.728;8.968;2023-01-19T06:16:51;-5.10;99.90
6822;DHT22;3449;48.728;8.968;2023-01-19T06:19:19;-5.10;99.90
6822;DHT22;3449;48.728;8.968;2023-01-19T06:21:47;-5.10;99.90
6822;DHT22;3449;48.728;8.968;2023-01-19T06:24:16;-5.10;99.90
6822;DHT22;3449;48.728;8.968;2023-01-19T06:26:43;-5.00;99.90
6822;DHT22;3449;48.728;8.968;2023-01-19T06:29:11;-5.00;99.90
6822;DHT22;3449;48.728;8.968;2023-01-19T06:31:38;-4.90;99.90
6822;DHT22;3449;48.728;8.968;2023-01-19T06:34:05;-4.80;99.90
6822;DHT22;3449;48.728;8.968;2023-01-19T06:36:33;-4.80;99.90
6822;DHT22;3449;48.728;8.968;2023-01-19T06:39:00;-4.70;99.90
6822;DHT22;3449;48.728;8.968;2023-01-19T06:41:30;-4.70;99.90
6822;DHT22;3449;48.728;8.968;2023-01-19T06:43:57;-4.70;99.90
6822;DHT22;3449;48.728;8.968;2023-01-19T06:46:23;-4.70;99.90
6822;DHT22;3449;48.728;8.968;2023-01-19T06:48:50;-4.70;99.90
6822;DHT22;3449;48.728;8.968;2023-01-19T06:51:17;-4.60;99.90
6822;DHT22;3449;48.728;8.968;2023-01-19T06:53:45;-4.80;99.90
6822;DHT22;3449;48.728;8.968;2023-01-19T06:56:12;-4.80;99.90
6822;DHT22;3449;48.728;8.968;2023-01-19T06:58:39;-4.80;99.90
6822;DHT22;3449;48.728;8.968;2023-01-19T07:01:08;-4.70;99.90
6822;DHT22;3449;48.728;8.968;2023-01-19T07:03:35;-4.70;99.90
6822;DHT22;3449;48.728;8.968;2023-01-19T07:06:03;-4.60;99.90
6822;DHT22;3449;48.728;8.968;2023-01-19T07:08:32;-4.60;99.90
6822;DHT22;3449;48.728;8.968;2023-01-19T07:11:02;-4.60;99.90
6822;DHT22;3449;48.728;8.968;2023-01-19T07:13:30;-4.60;99.90
6822;DHT22;3449;48.728;8.968;2023-01-19T07:15:57;-4.60;99.90
6822;DHT22;3449;48.728;8.968;2023-01-19T07:18:24;-4.50;99.90
6822;DHT22;3449;48.728;8.968;2023-01-19T07:20:51;-4.60;99.90
6822;DHT22;3449;48.728;8.968;2023-01-19T07:23:18;-4.60;99.90
6822;DHT22;3449;48.728;8.968;2023-01-19T07:25:45;-4.70;99.90
6822;DHT22;3449;48.728;8.968;2023-01-19T07:28:13;-4.70;99.90
6822;DHT22;3449;48.728;8.968;2023-01-19T07:30:41;-4.80;99.90
6822;DHT22;3449;48.728;8.968;2023-01-19T07:33:08;-4.80;99.90
6822;DHT22;3449;48.728;8.968;2023-01-19T07:35:35;-4.80;99.90
6822;DHT22;3449;48.728;8.968;2023-01-19T07:38:02;-4.90;99.90
6822;DHT22;3449;48.728;8.968;2023-01-19T07:40:29;-4.90;99.90
6822;DHT22;3449;48.728;8.968;2023-01-19T07:42:57;-4.80;99.90
6822;DHT22;3449;48.728;8.968;2023-01-19T07:45:26;-4.80;99.90
6822;DHT22;3449;48.728;8.968;2023-01-19T07:47:52;-4.70;99.90
6822;DHT22;3449;48.728;8.968;2023-01-19T07:50:19;-4.60;99.90
6822;DHT22;3449;48.728;8.968;2023-01-19T07:52:49;-4.60;99.90
6822;DHT22;3449;48.728;8.968;2023-01-19T07:55:18;-4.40;99.90
6822;DHT22;3449;48.728;8.968;2023-01-19T07:57:47;-4.30;99.90
6822;DHT22;3449;48.728;8.968;2023-01-19T08:00:16;-4.20;99.90
6822;DHT22;3449;48.728;8.968;2023-01-19T08:02:45;-4.00;99.90
6822;DHT22;3449;48.728;8.968;2023-01-19T08:05:15;-3.80;99.90
6822;DHT22;3449;48.728;8.968;2023-01-19T08:07:42;-3.70;99.90
6822;DHT22;3449;48.728;8.968;2023-01-19T08:10:10;-3.50;99.90
6822;DHT22;3449;48.728;8.968;2023-01-19T08:12:37;-3.50;99.90
6822;DHT22;3449;48.728;8.968;2023-01-19T08:15:05;-3.60;99.90
6822;DHT22;3449;48.728;8.968;2023-01-19T08:17:32;-3.60;99.90
6822;DHT22;3449;48.728;8.968;2023-01-19T08:20:00;-3.50;99.90
6822;DHT22;3449;48.728;8.968;2023-01-19T08:22:27;-3.50;99.90
6822;DHT22;3449;48.728;8.968;2023-01-19T08:24:53;-3.40;99.90
6822;DHT22;3449;48.728;8.968;2023-01-19T08:27:20;-3.40;99.90
6822;DHT22;3449;48.728;8.968;2023-01-19T08:29:47;-3.20;99.90
6822;DHT22;3449;48.728;8.968;2023-01-19T08:32:14;-3.00;99.90
6822;DHT22;3449;48.728;8.968;2023-01-19T08:34:41;-2.70;99.90
6822;DHT22;3449;48.728;8.968;2023-01-19T08:37:09;-2.50;99.90
6822;DHT22;3449;48.728;8.968;2023-01-19T08:39:37;-2.40;99.90
6822;DHT22;3449;48.728;8.968;2023-01-19T08:42:03;-2.20;99.90
6822;DHT22;3449;48.728;8.968;2023-01-19T08:44:30;-2.00;99.90
6822;DHT22;3449;48.728;8.968;2023-01-19T08:46:58;-2.10;99.90
6822;DHT22;3449;48.728;8.968;2023-01-19T08:49:25;-2.00;99.90
6822;DHT22;3449;48.728;8.968;2023-01-19T08:51:52;-2.10;99.90
6822;DHT22;3449;48.728;8.968;2023-01-19T08:54:21;-2.00;99.90
6822;DHT22;3449;48.728;8.968;2023-01-19T08:56:48;-2.00;99.90
6822;DHT22;3449;48.728;8.968;2023-01-19T08:59:15;-1.80;99.90
6822;DHT22;3449;48.728;8.968;2023-01-19T09:01:42;-1.70;99.90
6822;DHT22;3449;48.728;8.968;2023-01-19T09:04:09;-1.40;99.90
6822;DHT22;3449;48.728;8.968;2023-01-19T09:06:36;-1.20;99.90
6822;DHT22;3449;48.728;8.968;2023-01-19T09:09:03;-0.90;99.90
6822;DHT22;3449;48.728;8.968;2023-01-19T09:11:31;-0.80;99.90
6822;DHT22;3449;48.728;8.968;2023-01-19T09:13:59;-0.70;99.90
6822;DHT22;3449;48.728;8.968;2023-01-19T09:16:26;-0.60;99.90
6822;DHT22;3449;48.728;8.968;2023-01-19T09:18:53;-0.40;99.90
6822;DHT22;3449;48.728;8.968;2023-01-19T09:21:20;-0.50;99.90
6822;DHT22;3449;48.728;8.968;2023-01-19T09:23:47;-0.60;99.90
6822;DHT22;3449;48.728;8.968;2023-01-19T09:26:14;-0.80;99.90
6822;DHT22;3449;48.728;8.968;2023-01-19T09:28:43;-1.00;99.90
6822;DHT22;3449;48.728;8.968;2023-01-19T09:31:10;-1.20;99.90
6822;DHT22;3449;48.728;8.968;2023-01-19T09:33:37;-1.20;99.90
6822;DHT22;3449;48.728;8.968;2023-01-19T09:36:04;-0.90;99.90
6822;DHT22;3449;48.728;8.968;2023-01-19T09:38:31;-0.80;99.90
6822;DHT22;3449;48.728;8.968;2023-01-19T09:40:59;-0.70;99.90
6822;DHT22;3449;48.728;8.968;2023-01-19T09:43:38;-0.40;99.90
6822;DHT22;3449;48.728;8.968;2023-01-19T09:46:11;-0.30;99.90
6822;DHT22;3449;48.728;8.968;2023-01-19T09:48:45;-0.30;99.90
6822;DHT22;3449;48.728;8.968;2023-01-19T09:51:15;-0.40;99.90
6822;DHT22;3449;48.728;8.968;2023-01-19T09:54:02;-0.50;99.90
6822;DHT22;3449;48.728;8.968;2023-01-19T09:56:31;-0.60;99.90
6822;DHT22;3449;48.728;8.968;2023-01-19T09:58:58;-0.70;99.90
6822;DHT22;3449;48.728;8.968;2023-01-19T10:01:36;-0.80;99.90
6822;DHT22;3449;48.728;8.968;2023-01-19T10:04:28;-0.90;99.90
6822;DHT22;3449;48.728;8.968;2023-01-19T10:07:08;-0.90;99.90
6822;DHT22;3449;48.728;8.968;2023-01-19T10:09:51;-1.00;99.90
6822;DHT22;3449;48.728;8.968;2023-01-19T10:12:31;-0.80;99.90
6822;DHT22;3449;48.728;8.968;2023-01-19T10:15:05;-0.90;99.90
6822;DHT22;3449;48.728;8.968;2023-01-19T10:17:46;-0.90;99.90
6822;DHT22;3449;48.728;8.968;2023-01-19T10:20:20;-1.00;99.90
6822;DHT22;3449;48.728;8.968;2023-01-19T10:22:50;-1.00;99.90
6822;DHT22;3449;48.728;8.968;2023-01-19T10:25:20;-0.90;99.90
6822;DHT22;3449;48.728;8.968;2023-01-19T10:27:49;-0.90;99.90
6822;DHT22;3449;48.728;8.968;2023-01-19T10:30:19;-1.00;99.90
6822;DHT22;3449;48.728;8.968;2023-01-19T10:32:49;-1.00;99.90
6822;DHT22;3449;48.728;8.968;2023-01-19T10:35:19;-1.10;99.90
6822;DHT22;3449;48.728;8.968;2023-01-19T10:37:49;-1.20;99.90
6822;DHT22;3449;48.728;8.968;2023-01-19T10:40:25;-1.20;99.90
6822;DHT22;3449;48.728;8.968;2023-01-19T10:42:53;-1.20;99.90
6822;DHT22;3449;48.728;8.968;2023-01-19T10:45:22;-1.10;99.90
6822;DHT22;3449;48.728;8.968;2023-01-19T10:47:52;-1.10;99.90
6822;DHT22;3449;48.728;8.968;2023-01-19T10:50:26;-1.10;99.90
6822;DHT22;3449;48.728;8.968;2023-01-19T10:52:54;-1.20;99.90
6822;DHT22;3449;48.728;8.968;2023-01-19T10:55:27;-0.90;99.90
6822;DHT22;3449;48.728;8.968;2023-01-19T10:57:55;-0.50;99.90
6822;DHT22;3449;48.728;8.968;2023-01-19T11:00:31;-0.50;99.90
6822;DHT22;3449;48.728;8.968;2023-01-19T11:03:00;0.00;99.90
6822;DHT22;3449;48.728;8.968;2023-01-19T11:05:29;0.60;99.90
6822;DHT22;3449;48.728;8.968;2023-01-19T11:07:56;0.50;99.90
6822;DHT22;3449;48.728;8.968;2023-01-19T11:10:24;0.40;99.90
6822;DHT22;3449;48.728;8.968;2023-01-19T11:12:56;0.20;99.90
6822;DHT22;3449;48.728;8.968;2023-01-19T11:15:29;0.30;99.90
6822;DHT22;3449;48.728;8.968;2023-01-19T11:17:57;0.80;99.90
6822;DHT22;3449;48.728;8.968;2023-01-19T11:20:28;1.30;99.90
6822;DHT22;3449;48.728;8.968;2023-01-19T11:23:07;1.80;99.90
6822;DHT22;3449;48.728;8.968;2023-01-19T11:25:45;2.00;99.90
6822;DHT22;3449;48.728;8.968;2023-01-19T11:28:16;1.90;99.90
6822;DHT22;3449;48.728;8.968;2023-01-19T11:30:53;1.70;99.90
6822;DHT22;3449;48.728;8.968;2023-01-19T11:33:25;1.50;99.90
6822;DHT22;3449;48.728;8.968;2023-01-19T11:36:03;1.50;99.90
6822;DHT22;3449;48.728;8.968;2023-01-19T11:38:31;1.70;99.90
6822;DHT22;3449;48.728;8.968;2023-01-19T11:40:59;1.70;99.90
6822;DHT22;3449;48.728;8.968;2023-01-19T11:43:29;1.40;99.90
6822;DHT22;3449;48.728;8.968;2023-01-19T11:45:56;1.30;99.90
6822;DHT22;3449;48.728;8.968;2023-01-19T11:48:28;1.10;99.90
6822;DHT22;3449;48.728;8.968;2023-01-19T11:51:01;0.90;99.90
6822;DHT22;3449;48.728;8.968;2023-01-19T11:53:32;0.70;99.90
6822;DHT22;3449;48.728;8.968;2023-01-19T11:56:01;0.60;99.90
6822;DHT22;3449;48.728;8.968;2023-01-19T11:58:30;0.70;99.90
6822;DHT22;3449;48.728;8.968;2023-01-19T12:01:01;0.60;99.90
6822;DHT22;3449;48.728;8.968;2023-01-19T12:03:33;0.50;99.90
6822;DHT22;3449;48.728;8.968;2023-01-19T12:06:07;0.60;99.90
6822;DHT22;3449;48.728;8.968;2023-01-19T12:08:38;0.60;99.90
6822;DHT22;3449;48.728;8.968;2023-01-19T12:11:08;0.50;99.90
6822;DHT22;3449;48.728;8.968;2023-01-19T12:13:36;0.60;99.90
6822;DHT22;3449;48.728;8.968;2023-01-19T12:16:09;0.50;99.90
6822;DHT22;3449;48.728;8.968;2023-01-19T12:18:40;0.50;99.90
6822;DHT22;3449;48.728;8.968;2023-01-19T12:21:09;0.50;99.90
6822;DHT22;3449;48.728;8.968;2023-01-19T12:23:44;0.50;99.90
6822;DHT22;3449;48.728;8.968;2023-01-19T12:26:36;0.50;99.90
6822;DHT22;3449;48.728;8.968;2023-01-19T12:29:09;0.60;99.90
6822;DHT22;3449;48.728;8.968;2023-01-19T12:31:37;0.60;99.90
6822;DHT22;3449;48.728;8.968;2023-01-19T12:34:27;0.50;99.90
6822;DHT22;3449;48.728;8.968;2023-01-19T12:37:00;0.40;99.90
6822;DHT22;3449;48.728;8.968;2023-01-19T12:39:28;0.30;99.90
6822;DHT22;3449;48.728;8.968;2023-01-19T12:42:10;0.20;99.90
6822;DHT22;3449;48.728;8.968;2023-01-19T12:44:38;0.20;99.90
6822;DHT22;3449;48.728;8.968;2023-01-19T12:47:19;0.20;99.90
6822;DHT22;3449;48.728;8.968;2023-01-19T12:49:50;0.10;99.90
6822;DHT22;3449;48.728;8.968;2023-01-19T12:52:32;0.10;99.90
6822;DHT22;3449;48.728;8.968;2023-01-19T12:55:03;0.10;99.90
6822;DHT22;3449;48.728;8.968;2023-01-19T12:57:34;0.00;99.90
6822;DHT22;3449;48.728;8.968;2023-01-19T13:00:06;0.10;99.90
6822;DHT22;3449;48.728;8.968;2023-01-19T13:02:44;0.10;99.90
6822;DHT22;3449;48.728;8.968;2023-01-19T13:05:20;0.10;99.90
6822;DHT22;3449;48.728;8.968;2023-01-19T13:08:14;0.10;99.90
6822;DHT22;3449;48.728;8.968;2023-01-19T13:11:12;0.00;99.90
6822;DHT22;3449;48.728;8.968;2023-01-19T13:13:40;0.00;99.90
6822;DHT22;3449;48.728;8.968;2023-01-19T13:19:15;0.00;99.90
6822;DHT22;3449;48.728;8.968;2023-01-19T13:21:45;0.00;99.90
6822;DHT22;3449;48.728;8.968;2023-01-19T13:24:15;0.00;99.90
6822;DHT22;3449;48.728;8.968;2023-01-19T13:26:53;-0.10;99.90
6822;DHT22;3449;48.728;8.968;2023-01-19T13:29:25;-0.10;99.90
6822;DHT22;3449;48.728;8.968;2023-01-19T13:31:56;-0.10;99.90
6822;DHT22;3449;48.728;8.968;2023-01-19T13:34:29;-0.10;99.90
6822;DHT22;3449;48.728;8.968;2023-01-19T13:36:56;-0.10;99.90
6822;DHT22;3449;48.728;8.968;2023-01-19T13:39:28;-0.10;99.90
6822;DHT22;3449;48.728;8.968;2023-01-19T13:41:59;-0.10;99.90
6822;DHT22;3449;48.728;8.968;2023-01-19T13:44:28;-0.10;99.90
6822;DHT22;3449;48.728;8.968;2023-01-19T13:46:56;0.00;99.90
6822;DHT22;3449;48.728;8.968;2023-01-19T13:49:26;0.00;99.90
6822;DHT22;3449;48.728;8.968;2023-01-19T13:52:11;0.10;99.90
6822;DHT22;3449;48.728;8.968;2023-01-19T13:54:48;0.00;99.90
6822;DHT22;3449;48.728;8.968;2023-01-19T13:57:22;0.10;99.90
6822;DHT22;3449;48.728;8.968;2023-01-19T14:00:04;0.20;99.90
6822;DHT22;3449;48.728;8.968;2023-01-19T14:02:31;0.10;99.90
6822;DHT22;3449;48.728;8.968;2023-01-19T14:05:11;0.10;99.90
6822;DHT22;3449;48.728;8.968;2023-01-19T14:07:38;0.20;99.90
6822;DHT22;3449;48.728;8.968;2023-01-19T14:10:12;0.20;99.90
6822;DHT22;3449;48.728;8.968;2023-01-19T14:12:41;0.20;99.90
6822;DHT22;3449;48.728;8.968;2023-01-19T14:15:10;0.20;99.90
6822;DHT22;3449;48.728;8.968;2023-01-19T14:17:39;0.20;99.90
6822;DHT22;3449;48.728;8.968;2023-01-19T14:20:26;0.20;99.90
6822;DHT22;3449;48.728;8.968;2023-01-19T14:23:36;0.20;99.90
6822;DHT22;3449;48.728;8.968;2023-01-19T14:26:06;0.20;99.90
6822;DHT22;3449;48.728;8.968;2023-01-19T14:28:52;0.10;99.90
6822;DHT22;3449;48.728;8.968;2023-01-19T14:31:21;0.10;99.90
6822;DHT22;3449;48.728;8.968;2023-01-19T14:33:50;0.10;99.90
6822;DHT22;3449;48.728;8.968;2023-01-19T14:36:31;0.00;99.90
6822;DHT22;3449;48.728;8.968;2023-01-19T14:38:59;0.00;99.90
6822;DHT22;3449;48.728;8.968;2023-01-19T14:41:34;0.00;99.90
6822;DHT22;3449;48.728;8.968;2023-01-19T14:44:07;0.00;99.90
6822;DHT22;3449;48.728;8.968;2023-01-19T14:46:35;0.00;99.90
6822;DHT22;3449;48.728;8.968;2023-01-19T14:49:04;0.00;99.90
6822;DHT22;3449;48.728;8.968;2023-01-19T14:51:31;0.00;99.90
6822;DHT22;3449;48.728;8.968;2023-01-19T14:53:59;0.00;99.90
6822;DHT22;3449;48.728;8.968;2023-01-19T14:56:29;0.00;99.90
6822;DHT22;3449;48.728;8.968;2023-01-19T14:58:58;0.00;99.90
6822;DHT22;3449;48.728;8.968;2023-01-19T15:01:27;0.10;99.90
6822;DHT22;3449;48.728;8.968;2023-01-19T15:03:55;0.10;99.90
6822;DHT22;3449;48.728;8.968;2023-01-19T15:06:23;0.10;99.90
6822;DHT22;3449;48.728;8.968;2023-01-19T15:08:51;0.00;99.90
6822;DHT22;3449;48.728;8.968;2023-01-19T15:11:21;0.00;99.90
6822;DHT22;3449;48.728;8.968;2023-01-19T15:13:50;0.00;99.90
6822;DHT22;3449;48.728;8.968;2023-01-19T15:16:17;0.00;99.90
6822;DHT22;3449;48.728;8.968;2023-01-19T15:18:45;0.10;99.90
6822;DHT22;3449;48.728;8.968;2023-01-19T15:21:14;0.00;99.90
6822;DHT22;3449;48.728;8.968;2023-01-19T15:23:44;0.00;99.90
6822;DHT22;3449;48.728;8.968;2023-01-19T15:26:15;-0.10;99.90
6822;DHT22;3449;48.728;8.968;2023-01-19T15:28:42;-0.10;99.90
6822;DHT22;3449;48.728;8.968;2023-01-19T15:31:13;-0.10;99.90
6822;DHT22;3449;48.728;8.968;2023-01-19T15:33:40;-0.10;99.90
6822;DHT22;3449;48.728;8.968;2023-01-19T15:36:11;-0.10;99.90
6822;DHT22;3449;48.728;8.968;2023-01-19T15:38:38;-0.10;99.90
6822;DHT22;3449;48.728;8.968;2023-01-19T15:41:12;-0.10;99.90
6822;DHT22;3449;48.728;8.968;2023-01-19T15:43:39;-0.20;99.90
6822;DHT22;3449;48.728;8.968;2023-01-19T15:46:07;-0.10;99.90
6822;DHT22;3449;48.728;8.968;2023-01-19T15:48:36;-0.20;99.90
6822;DHT22;3449;48.728;8.968;2023-01-19T15:51:03;-0.20;99.90
6822;DHT22;3449;48.728;8.968;2023-01-19T15:53:30;-0.20;99.90
6822;DHT22;3449;48.728;8.968;2023-01-19T15:55:57;-0.20;99.90
6822;DHT22;3449;48.728;8.968;2023-01-19T15:58:24;-0.20;99.90
6822;DHT22;3449;48.728;8.968;2023-01-19T16:00:55;-0.20;99.90
6822;DHT22;3449;48.728;8.968;2023-01-19T16:03:23;-0.20;99.90
6822;DHT22;3449;48.728;8.968;2023-01-19T16:05:51;-0.20;99.90
6822;DHT22;3449;48.728;8.968;2023-01-19T16:08:18;-0.20;99.90
6822;DHT22;3449;48.728;8.968;2023-01-19T16:10:46;-0.20;99.90
6822;DHT22;3449;48.728;8.968;2023-01-19T16:13:13;-0.20;99.90
6822;DHT22;3449;48.728;8.968;2023-01-19T16:15:40;-0.20;99.90
6822;DHT22;3449;48.728;8.968;2023-01-19T16:18:07;-0.20;99.90
6822;DHT22;3449;48.728;8.968;2023-01-19T16:20:34;-0.20;99.90
6822;DHT22;3449;48.728;8.968;2023-01-19T16:23:03;-0.30;99.90
6822;DHT22;3449;48.728;8.968;2023-01-19T16:25:30;-0.30;99.90